createdAt,value
2023-04-16T00:00:39.949Z,100928.33
2023-04-16T00:03:33.663Z,100937.90
2023-04-16T00:06:20.751Z,100936.60
2023-04-16T00:09:07.436Z,100938.20
2023-04-16T00:11:54.141Z,100935.60
2023-04-16T00:14:40.666Z,100940.00
2023-04-16T00:17:27.505Z,100938.31
2023-04-16T00:20:13.877Z,100936.94
2023-04-16T00:23:00.690Z,100941.05
2023-04-16T00:25:47.596Z,100943.70
2023-04-16T00:28:34.504Z,100945.96
2023-04-16T00:31:32.928Z,100944.33
2023-04-16T00:34:19.473Z,100949.77
2023-04-16T00:37:06.100Z,100948.44
2023-04-16T00:39:52.595Z,100943.36
2023-04-16T00:42:38.929Z,100949.11
2023-04-16T00:45:25.223Z,100950.70
2023-04-16T00:48:11.551Z,100948.56
2023-04-16T00:50:59.430Z,100948.36
2023-04-16T00:53:46.627Z,100949.17
2023-04-16T00:56:35.697Z,100938.45
2023-04-16T00:59:22.934Z,100950.52
2023-04-16T01:02:09.564Z,100953.05
2023-04-16T01:04:56.415Z,100952.37
2023-04-16T01:07:43.077Z,100955.36
2023-04-16T01:10:29.448Z,100940.56
2023-04-16T01:13:16.248Z,100948.59
2023-04-16T01:16:03.171Z,100951.30
2023-04-16T01:18:49.548Z,100953.59
2023-04-16T01:21:36.267Z,100951.86
2023-04-16T01:24:23.247Z,100954.04
2023-04-16T01:27:10.016Z,100949.92
2023-04-16T01:29:56.421Z,100954.59
2023-04-16T01:32:47.984Z,100956.52
2023-04-16T01:35:34.453Z,100954.41
2023-04-16T01:38:21.009Z,100957.55
2023-04-16T01:41:07.844Z,100956.40
2023-04-16T01:43:55.048Z,100961.73
2023-04-16T01:46:45.195Z,100961.32
2023-04-16T01:49:32.412Z,100962.40
2023-04-16T01:52:19.384Z,100954.16
2023-04-16T01:55:07.282Z,100957.38
2023-04-16T01:57:53.917Z,100964.77
2023-04-16T02:00:42.057Z,100964.56
2023-04-16T02:03:28.860Z,100962.30
2023-04-16T02:06:15.539Z,100962.11
2023-04-16T02:09:02.205Z,100961.10
2023-04-16T02:11:48.892Z,100961.15
2023-04-16T02:14:35.394Z,100964.85
2023-04-16T02:17:21.757Z,100967.08
2023-04-16T02:20:11.336Z,100966.48
2023-04-16T02:23:02.559Z,100969.41
2023-04-16T02:25:49.513Z,100968.43
2023-04-16T02:28:35.954Z,100969.23
2023-04-16T02:31:23.468Z,100967.11
2023-04-16T02:34:10.359Z,100971.18
2023-04-16T02:36:58.333Z,100972.85
2023-04-16T02:39:45.116Z,100975.02
2023-04-16T02:42:33.598Z,100974.40
2023-04-16T02:45:20.989Z,100966.20
2023-04-16T02:48:09.048Z,100975.55
2023-04-16T02:50:55.842Z,100976.94
2023-04-16T02:53:46.002Z,100978.05
2023-04-16T02:56:32.306Z,100980.88
2023-04-16T02:59:18.766Z,100985.77
2023-04-16T03:02:05.403Z,100982.05
2023-04-16T03:04:52.124Z,100979.91
2023-04-16T03:07:39.350Z,100983.16
2023-04-16T03:10:25.638Z,100985.39
2023-04-16T03:13:12.218Z,100990.39
2023-04-16T03:15:58.881Z,100988.83
2023-04-16T03:18:45.367Z,100991.88
2023-04-16T03:21:31.890Z,100995.42
2023-04-16T03:24:18.733Z,100990.85
2023-04-16T03:27:08.099Z,100993.52
2023-04-16T03:29:54.871Z,100996.41
2023-04-16T03:32:42.622Z,100996.41
2023-04-16T03:35:29.948Z,100997.91
2023-04-16T03:38:16.646Z,100998.57
2023-04-16T03:41:03.323Z,101001.59
2023-04-16T03:43:50.929Z,101003.33
2023-04-16T03:46:37.719Z,101003.19
2023-04-16T03:49:24.218Z,101004.98
2023-04-16T03:52:11.574Z,101007.55
2023-04-16T03:54:58.065Z,101013.41
2023-04-16T03:57:48.820Z,101012.50
2023-04-16T04:00:36.205Z,101012.24
2023-04-16T04:03:29.439Z,101025.21
2023-04-16T04:06:16.515Z,101028.23
2023-04-16T04:09:03.143Z,101029.90
2023-04-16T04:11:50.854Z,101034.45
2023-04-16T04:14:40.248Z,101038.04
2023-04-16T04:17:26.878Z,101035.69
2023-04-16T04:20:13.658Z,101040.94
2023-04-16T04:23:03.496Z,101043.59
2023-04-16T04:25:50.514Z,101039.86
2023-04-16T04:28:36.981Z,101046.15
2023-04-16T04:31:24.129Z,101049.22
2023-04-16T04:34:10.631Z,101042.37
2023-04-16T04:36:56.804Z,101048.90
2023-04-16T04:39:43.608Z,101054.91
2023-04-16T04:42:31.794Z,101055.30
2023-04-16T04:45:19.284Z,101055.66
2023-04-16T04:48:06.353Z,101054.71
2023-04-16T04:50:53.965Z,101056.83
2023-04-16T04:53:40.478Z,101063.02
2023-04-16T04:56:27.160Z,101061.77
2023-04-16T04:59:14.641Z,101061.79
2023-04-16T05:02:03.419Z,101060.63
2023-04-16T05:04:50.072Z,101067.44
2023-04-16T05:07:36.961Z,101069.42
2023-04-16T05:10:23.654Z,101067.63
2023-04-16T05:13:10.039Z,101071.38
2023-04-16T05:15:56.631Z,101072.69
2023-04-16T05:18:42.951Z,101079.41
2023-04-16T05:21:29.398Z,101078.36
2023-04-16T05:24:15.793Z,101081.00
2023-04-16T05:27:02.519Z,101084.89
2023-04-16T05:29:49.072Z,101089.28
2023-04-16T05:32:35.943Z,101092.36
2023-04-16T05:35:22.791Z,101096.57
2023-04-16T05:38:08.983Z,101095.64
2023-04-16T05:40:56.234Z,101098.11
2023-04-16T05:43:42.727Z,101099.52
2023-04-16T05:46:29.264Z,101102.55
2023-04-16T05:49:18.728Z,101105.30
2023-04-16T05:52:05.739Z,101103.10
2023-04-16T05:54:51.980Z,101106.33
2023-04-16T05:57:38.407Z,101105.97
2023-04-16T06:00:25.453Z,101105.33
2023-04-16T06:03:11.931Z,101106.81
2023-04-16T06:05:58.665Z,101109.95
2023-04-16T06:08:45.505Z,101113.06
2023-04-16T06:11:33.251Z,101114.70
2023-04-16T06:14:21.249Z,101119.67
2023-04-16T06:17:07.765Z,101120.87
2023-04-16T06:19:54.264Z,101123.61
2023-04-16T06:22:41.511Z,101124.18
2023-04-16T06:25:28.160Z,101129.26
2023-04-16T06:28:14.690Z,101127.88
2023-04-16T06:31:01.199Z,101137.13
2023-04-16T06:33:47.586Z,101136.37
2023-04-16T06:36:34.040Z,101135.17
2023-04-16T06:39:21.949Z,101136.26
2023-04-16T06:42:08.459Z,101144.80
2023-04-16T06:44:54.998Z,101143.00
2023-04-16T06:47:41.378Z,101147.52
2023-04-16T06:50:28.655Z,101147.35
2023-04-16T06:53:15.860Z,101148.48
2023-04-16T06:56:02.007Z,101147.73
2023-04-16T06:58:48.403Z,101154.20
2023-04-16T07:01:35.374Z,101149.10
2023-04-16T07:04:21.961Z,101153.49
2023-04-16T07:07:09.021Z,101160.36
2023-04-16T07:09:55.519Z,101161.20
2023-04-16T07:12:41.786Z,101162.55
2023-04-16T07:15:28.908Z,101161.86
2023-04-16T07:18:15.927Z,101164.05
2023-04-16T07:21:02.371Z,101164.88
2023-04-16T07:23:48.714Z,101167.02
2023-04-16T07:26:35.459Z,101169.67
2023-04-16T07:29:22.159Z,101177.00
2023-04-16T07:32:08.829Z,101178.80
2023-04-16T07:34:56.556Z,101177.42
2023-04-16T07:37:42.906Z,101177.80
2023-04-16T07:40:30.289Z,101181.52
2023-04-16T07:43:16.978Z,101188.56
2023-04-16T07:46:03.713Z,101188.46
2023-04-16T07:48:50.529Z,101187.01
2023-04-16T07:51:36.842Z,101185.43
2023-04-16T07:54:23.518Z,101176.80
2023-04-16T07:57:11.602Z,101187.36
2023-04-16T07:59:58.407Z,101191.60
2023-04-16T08:02:45.228Z,101192.96
2023-04-16T08:05:31.708Z,101194.38
2023-04-16T08:08:18.291Z,101194.15
2023-04-16T08:11:04.840Z,101198.72
2023-04-16T08:13:51.059Z,101203.41
2023-04-16T08:16:38.848Z,101197.29
2023-04-16T08:19:25.324Z,101203.89
2023-04-16T08:22:12.926Z,101207.16
2023-04-16T08:24:59.571Z,101212.35
2023-04-16T08:27:46.095Z,101215.45
2023-04-16T08:30:32.731Z,101217.63
2023-04-16T08:33:19.240Z,101220.08
2023-04-16T08:36:06.022Z,101222.20
2023-04-16T08:38:52.832Z,101216.26
2023-04-16T08:41:46.268Z,101228.55
2023-04-16T08:44:35.355Z,101224.09
2023-04-16T08:47:25.192Z,101237.17
2023-04-16T08:50:15.263Z,101238.91
2023-04-16T08:53:08.410Z,101239.20
2023-04-16T08:55:59.792Z,101240.11
2023-04-16T08:58:48.829Z,101244.65
2023-04-16T09:01:36.115Z,101252.15
2023-04-16T09:04:24.883Z,101255.90
2023-04-16T09:07:12.143Z,101258.17
2023-04-16T09:10:00.451Z,101261.44
2023-04-16T09:12:46.979Z,101261.33
2023-04-16T09:15:35.473Z,101266.96
2023-04-16T09:18:21.812Z,101264.32
2023-04-16T09:21:13.821Z,101262.55
2023-04-16T09:24:01.653Z,101270.02
2023-04-16T09:26:52.742Z,101270.35
2023-04-16T09:29:41.724Z,101272.05
2023-04-16T09:32:29.023Z,101274.67
2023-04-16T09:35:18.913Z,101274.05
2023-04-16T09:38:05.806Z,101272.23
2023-04-16T09:41:08.827Z,101279.12
2023-04-16T09:44:05.061Z,101274.78
2023-04-16T09:46:51.827Z,101279.91
2023-04-16T09:49:44.603Z,101282.67
2023-04-16T09:52:31.445Z,101284.36
2023-04-16T09:55:23.805Z,101286.23
2023-04-16T09:58:10.596Z,101293.16
2023-04-16T10:01:02.347Z,101295.48
2023-04-16T10:03:51.071Z,101299.50
2023-04-16T10:06:38.233Z,101303.45
2023-04-16T10:09:24.836Z,101302.48
2023-04-16T10:12:12.925Z,101308.70
2023-04-16T10:14:59.328Z,101307.34
2023-04-16T10:17:46.892Z,101307.61
2023-04-16T10:20:34.212Z,101304.21
2023-04-16T10:23:22.072Z,101304.02
2023-04-16T10:26:09.054Z,101305.80
2023-04-16T10:28:56.400Z,101306.02
2023-04-16T10:31:43.342Z,101308.79
2023-04-16T10:34:31.539Z,101309.50
2023-04-16T10:37:18.775Z,101308.52
2023-04-16T10:40:23.547Z,101319.35
2023-04-16T10:43:18.041Z,101324.05
2023-04-16T10:46:26.599Z,101325.01
2023-04-16T10:49:19.311Z,101326.51
2023-04-16T10:52:13.793Z,101327.99
2023-04-16T10:55:01.273Z,101326.88
2023-04-16T10:57:50.031Z,101327.41
2023-04-16T11:00:50.511Z,101328.20
2023-04-16T11:03:37.122Z,101325.73
2023-04-16T11:06:26.585Z,101324.73
2023-04-16T11:09:46.564Z,101330.67
2023-04-16T11:12:38.216Z,101334.56
2023-04-16T11:15:30.942Z,101334.84
2023-04-16T11:18:20.588Z,101337.48
2023-04-16T11:21:12.398Z,101337.63
2023-04-16T11:23:58.994Z,101341.29
2023-04-16T11:26:45.462Z,101346.00
2023-04-16T11:29:31.836Z,101343.57
2023-04-16T11:32:22.826Z,101340.98
2023-04-16T11:35:17.964Z,101348.45
2023-04-16T11:38:07.191Z,101351.79
2023-04-16T11:40:54.326Z,101354.38
2023-04-16T11:43:41.038Z,101355.84
2023-04-16T11:46:40.605Z,101359.84
2023-04-16T11:49:30.718Z,101356.39
2023-04-16T11:52:27.322Z,101358.61
2023-04-16T11:55:14.158Z,101366.66
2023-04-16T11:58:12.294Z,101367.37
2023-04-16T12:01:00.497Z,101371.38
2023-04-16T12:03:49.657Z,101371.33
2023-04-16T12:06:36.701Z,101377.30
2023-04-16T12:09:25.101Z,101374.13
2023-04-16T12:12:31.587Z,101375.06
2023-04-16T12:15:18.457Z,101375.21
2023-04-16T12:18:08.446Z,101374.66
2023-04-16T12:20:54.837Z,101376.92
2023-04-16T12:23:42.674Z,101377.79
2023-04-16T12:26:40.140Z,101381.55
2023-04-16T12:29:28.076Z,101382.71
2023-04-16T12:32:23.422Z,101383.04
2023-04-16T12:35:13.296Z,101380.67
2023-04-16T12:38:00.544Z,101380.13
2023-04-16T12:40:47.361Z,101379.88
2023-04-16T12:43:33.967Z,101377.90
2023-04-16T12:46:20.334Z,101378.99
2023-04-16T12:49:08.899Z,101373.87
2023-04-16T12:51:55.956Z,101382.11
2023-04-16T12:54:42.497Z,101384.64
2023-04-16T12:57:29.054Z,101385.63
2023-04-16T13:00:16.394Z,101387.33
2023-04-16T13:03:03.054Z,101384.73
2023-04-16T13:05:49.806Z,101387.94
2023-04-16T13:08:37.445Z,101389.33
2023-04-16T13:11:24.210Z,101391.70
2023-04-16T13:14:11.065Z,101394.65
2023-04-16T13:16:57.355Z,101394.86
2023-04-16T13:19:43.733Z,101395.10
2023-04-16T13:22:30.733Z,101395.60
2023-04-16T13:25:17.495Z,101397.21
2023-04-16T13:28:04.330Z,101400.98
2023-04-16T13:30:50.982Z,101398.98
2023-04-16T13:33:38.302Z,101396.61
2023-04-16T13:36:27.426Z,101392.02
2023-04-16T13:39:15.724Z,101395.02
2023-04-16T13:42:02.722Z,101392.90
2023-04-16T13:44:53.175Z,101395.03
2023-04-16T13:47:43.449Z,101394.02
2023-04-16T13:50:30.419Z,101393.12
2023-04-16T13:53:16.900Z,101390.91
2023-04-16T13:56:07.317Z,101392.99
2023-04-16T13:58:53.741Z,101393.16
2023-04-16T14:01:40.328Z,101392.48
2023-04-16T14:04:26.550Z,101387.16
2023-04-16T14:07:12.987Z,101394.79
2023-04-16T14:09:59.607Z,101390.12
2023-04-16T14:12:46.367Z,101397.30
2023-04-16T14:15:33.188Z,101396.90
2023-04-16T14:18:19.510Z,101399.17
2023-04-16T14:21:06.022Z,101403.63
2023-04-16T14:23:52.337Z,101404.50
2023-04-16T14:26:38.791Z,101411.38
2023-04-16T14:29:25.843Z,101408.92
2023-04-16T14:32:12.570Z,101410.98
2023-04-16T14:34:59.126Z,101411.13
2023-04-16T14:37:46.689Z,101413.42
2023-04-16T14:40:34.282Z,101407.65
2023-04-16T14:43:20.750Z,101410.11
2023-04-16T14:46:07.254Z,101410.30
2023-04-16T14:48:53.704Z,101415.15
2023-04-16T14:51:41.336Z,101414.98
2023-04-16T14:54:28.374Z,101414.27
2023-04-16T14:57:14.668Z,101421.11
2023-04-16T15:00:01.294Z,101421.65
2023-04-16T15:02:48.391Z,101414.14
2023-04-16T15:05:35.810Z,101422.90
2023-04-16T15:08:24.013Z,101429.44
2023-04-16T15:11:11.024Z,101428.86
2023-04-16T15:13:57.540Z,101430.84
2023-04-16T15:16:46.157Z,101432.58
2023-04-16T15:19:32.916Z,101436.44
2023-04-16T15:22:19.633Z,101441.75
2023-04-16T15:25:06.762Z,101443.59
2023-04-16T15:27:53.239Z,101439.84
2023-04-16T15:30:41.432Z,101440.05
2023-04-16T15:33:28.327Z,101441.65
2023-04-16T15:36:14.833Z,101442.44
2023-04-16T15:39:01.545Z,101442.48
2023-04-16T15:42:00.626Z,101448.95
2023-04-16T15:44:48.112Z,101448.19
2023-04-16T15:47:36.388Z,101450.14
2023-04-16T15:50:23.191Z,101449.98
2023-04-16T15:53:09.816Z,101455.84
2023-04-16T15:55:56.598Z,101454.63
2023-04-16T15:58:43.078Z,101457.11
2023-04-16T16:01:29.896Z,101459.70
2023-04-16T16:04:26.744Z,101457.95
2023-04-16T16:07:15.520Z,101464.44
2023-04-16T16:10:02.590Z,101464.42
2023-04-16T16:12:49.483Z,101465.99
2023-04-16T16:15:36.329Z,101467.73
2023-04-16T16:18:22.752Z,101464.84
2023-04-16T16:21:09.120Z,101466.69
2023-04-16T16:23:55.511Z,101470.16
2023-04-16T16:26:42.403Z,101470.29
2023-04-16T16:29:28.608Z,101474.05
2023-04-16T16:32:16.518Z,101472.08
2023-04-16T16:35:03.014Z,101474.07
2023-04-16T16:37:55.369Z,101480.54
2023-04-16T16:40:42.008Z,101483.93
2023-04-16T16:43:28.331Z,101482.59
2023-04-16T16:46:14.957Z,101484.12
2023-04-16T16:49:01.646Z,101485.90
2023-04-16T16:51:48.765Z,101485.96
2023-04-16T16:54:35.472Z,101491.75
2023-04-16T16:57:21.849Z,101485.68
2023-04-16T17:00:12.260Z,101497.43
2023-04-16T17:02:58.695Z,101500.64
2023-04-16T17:05:45.359Z,101502.35
2023-04-16T17:08:31.729Z,101503.95
2023-04-16T17:11:18.284Z,101504.09
2023-04-16T17:14:05.007Z,101508.12
2023-04-16T17:16:51.713Z,101505.28
2023-04-16T17:19:38.469Z,101510.80
2023-04-16T17:22:25.076Z,101516.25
2023-04-16T17:25:11.965Z,101514.94
2023-04-16T17:27:58.755Z,101518.82
2023-04-16T17:30:46.237Z,101518.26
2023-04-16T17:33:32.866Z,101526.61
2023-04-16T17:36:21.365Z,101529.45
2023-04-16T17:39:07.997Z,101531.39
2023-04-16T17:41:58.375Z,101534.40
2023-04-16T17:44:45.320Z,101535.73
2023-04-16T17:47:31.621Z,101533.14
2023-04-16T17:50:18.764Z,101534.13
2023-04-16T17:53:05.423Z,101539.21
2023-04-16T17:55:55.190Z,101544.06
2023-04-16T17:58:43.334Z,101542.26
2023-04-16T18:01:30.312Z,101548.06
2023-04-16T18:04:17.421Z,101553.77
2023-04-16T18:07:04.303Z,101554.41
2023-04-16T18:09:51.109Z,101561.40
2023-04-16T18:12:37.658Z,101563.54
2023-04-16T18:15:24.713Z,101566.76
2023-04-16T18:18:11.196Z,101568.66
2023-04-16T18:20:57.621Z,101572.01
2023-04-16T18:23:44.991Z,101569.66
2023-04-16T18:26:33.724Z,101578.52
2023-04-16T18:29:25.008Z,101579.05
2023-04-16T18:32:12.477Z,101586.34
2023-04-16T18:34:59.510Z,101583.19
2023-04-16T18:37:46.798Z,101585.42
2023-04-16T18:40:37.334Z,101580.53
2023-04-16T18:43:24.040Z,101578.91
2023-04-16T18:46:10.705Z,101577.38
2023-04-16T18:48:59.090Z,101584.60
2023-04-16T18:51:45.760Z,101590.98
2023-04-16T18:54:32.208Z,101594.67
2023-04-16T18:57:18.559Z,101592.09
2023-04-16T19:00:12.674Z,101592.27
2023-04-16T19:02:59.413Z,101588.30
2023-04-16T19:05:45.677Z,101593.21
2023-04-16T19:08:32.156Z,101594.28
2023-04-16T19:11:18.729Z,101598.30
2023-04-16T19:14:05.956Z,101601.38
2023-04-16T19:16:52.414Z,101602.98
2023-04-16T19:19:38.943Z,101599.15
2023-04-16T19:22:25.677Z,101605.73
2023-04-16T19:25:12.005Z,101611.15
2023-04-16T19:27:58.915Z,101611.89
2023-04-16T19:30:46.768Z,101614.02
2023-04-16T19:33:32.980Z,101620.00
2023-04-16T19:36:19.077Z,101625.60
2023-04-16T19:39:06.413Z,101626.29
2023-04-16T19:41:52.588Z,101628.44
2023-04-16T19:44:39.385Z,101629.77
2023-04-16T19:47:25.778Z,101629.65
2023-04-16T19:50:12.262Z,101631.23
2023-04-16T19:52:58.696Z,101629.01
2023-04-16T19:55:46.910Z,101631.34
2023-04-16T19:58:33.791Z,101630.53
2023-04-16T20:01:20.075Z,101630.86
2023-04-16T20:04:07.310Z,101630.02
2023-04-16T20:06:53.863Z,101633.98
2023-04-16T20:09:40.538Z,101633.07
2023-04-16T20:12:27.470Z,101636.64
2023-04-16T20:15:14.007Z,101637.13
2023-04-16T20:18:00.370Z,101633.28
2023-04-16T20:20:47.486Z,101626.55
2023-04-16T20:23:33.898Z,101632.50
2023-04-16T20:26:20.586Z,101632.73
2023-04-16T20:29:07.357Z,101629.52
2023-04-16T20:31:53.558Z,101632.84
2023-04-16T20:34:40.596Z,101633.00
2023-04-16T20:37:29.118Z,101631.15
2023-04-16T20:40:16.451Z,101628.96
2023-04-16T20:43:03.065Z,101634.77
2023-04-16T20:45:50.178Z,101635.99
2023-04-16T20:48:38.546Z,101638.67
2023-04-16T20:51:24.596Z,101637.91
2023-04-16T20:54:11.219Z,101642.66
2023-04-16T20:56:58.190Z,101643.45
2023-04-16T20:59:44.727Z,101646.45
2023-04-16T21:02:31.592Z,101647.23
2023-04-16T21:05:21.346Z,101647.16
2023-04-16T21:08:07.852Z,101649.13
2023-04-16T21:10:54.448Z,101645.34
2023-04-16T21:13:41.058Z,101650.88
2023-04-16T21:16:27.586Z,101648.02
2023-04-16T21:19:14.080Z,101651.91
2023-04-16T21:22:02.709Z,101649.48
2023-04-16T21:24:49.280Z,101650.00
2023-04-16T21:27:35.783Z,101648.37
2023-04-16T21:30:22.738Z,101651.24
2023-04-16T21:33:09.528Z,101653.77
2023-04-16T21:35:55.836Z,101657.52
2023-04-16T21:38:42.649Z,101654.73
2023-04-16T21:41:29.131Z,101652.16
2023-04-16T21:44:15.522Z,101651.90
2023-04-16T21:47:02.330Z,101650.63
2023-04-16T21:49:49.109Z,101652.08
2023-04-16T21:52:40.333Z,101654.84
2023-04-16T21:55:27.202Z,101654.22
2023-04-16T21:58:13.695Z,101653.98
2023-04-16T22:01:00.245Z,101648.86
2023-04-16T22:03:50.842Z,101652.52
2023-04-16T22:06:37.738Z,101648.88
2023-04-16T22:09:27.169Z,101646.81
2023-04-16T22:12:13.944Z,101644.99
2023-04-16T22:15:02.711Z,101647.27
2023-04-16T22:17:50.137Z,101644.52
2023-04-16T22:20:39.233Z,101649.65
2023-04-16T22:23:26.402Z,101649.80
2023-04-16T22:26:13.305Z,101650.23
2023-04-16T22:28:59.781Z,101653.37
2023-04-16T22:31:46.978Z,101653.90
2023-04-16T22:34:33.367Z,101657.20
2023-04-16T22:37:20.020Z,101658.77
2023-04-16T22:40:11.430Z,101657.58
2023-04-16T22:42:57.978Z,101660.65
2023-04-16T22:45:46.157Z,101663.32
2023-04-16T22:48:36.169Z,101660.75
2023-04-16T22:51:24.566Z,101664.71
2023-04-16T22:54:13.636Z,101666.73
2023-04-16T22:57:01.037Z,101669.81
2023-04-16T22:59:47.416Z,101662.44
2023-04-16T23:02:34.019Z,101667.77
2023-04-16T23:05:20.789Z,101671.40
2023-04-16T23:08:07.524Z,101667.80
2023-04-16T23:10:53.804Z,101672.91
2023-04-16T23:13:40.287Z,101678.36
2023-04-16T23:16:27.929Z,101676.55
2023-04-16T23:19:15.687Z,101670.77
2023-04-16T23:22:02.101Z,101674.17
2023-04-16T23:24:48.523Z,101669.80
2023-04-16T23:27:36.550Z,101668.41
2023-04-16T23:30:23.061Z,101666.56
2023-04-16T23:33:09.403Z,101667.73
2023-04-16T23:35:56.022Z,101668.70
2023-04-16T23:38:42.619Z,101670.14
2023-04-16T23:41:29.254Z,101671.56
2023-04-16T23:44:16.480Z,101671.45
2023-04-16T23:47:02.963Z,101670.64
2023-04-16T23:49:49.489Z,101670.26
2023-04-16T23:52:36.855Z,101675.21
2023-04-16T23:55:23.845Z,101674.23
2023-04-16T23:58:10.345Z,101672.32
